No particular awareness of the weather is required.    There are no Weather-warnings


Meteo18 Weather Cam more information Meteo18 Weather Cam


Thunder radar more information blitzortung!


Rain radar more information rain snow radar


Visit our other weather sites:

Template documentation
and downloads

And another site



Weather Underground History page Text

Daily Summary for October 17, 2017 Units:  English    Metric   Both
« Previous Day
Next Day »
Daily Weekly Monthly Yearly Custom
  High: Low: Average:
Temperature: 76.6 °F 52 °F 61.2 °F
Dew Point: 58.5 °F 46.6 °F 52.5 °F
Humidity: 97 % 35 % 77 %
Wind Speed: 4 mph 0 mph 0.4 mph
Wind Gust: 10 mph - -
Wind:- - SSE
Pressure: 30.3 in 30 in -
Precipitation: 0 in    
Historical Graphs
 
 
Tabular Data for October 17, 2017
Time Temperature Dew Point Pressure Wind Wind Speed Wind Gust Humidity Rainfall Rate (Hourly)
00:02 58.6 °F 56.3 °F 30.3 in Calm     92 % 0 in
00:12 58.5 °F 55.8 °F 30.3 in Calm     91 % 0 in
00:17 58.3 °F 55.6 °F 30.3 in NNW 1 mph   91 % 0 in
00:22 58.3 °F 55.9 °F 30.3 in Calm     92 % 0 in
00:32 58.5 °F 55.8 °F 30.3 in Calm   1 mph 91 % 0 in
00:37 58.3 °F 55.6 °F 30.3 in Calm   1 mph 91 % 0 in
00:42 57.9 °F 55.2 °F 30.3 in Calm     91 % 0 in
00:47 57.7 °F 55.4 °F 30.3 in Calm     92 % 0 in
00:52 57.6 °F 55.2 °F 30.3 in Calm     92 % 0 in
00:57 57.6 °F 55.6 °F 30.3 in Calm     93 % 0 in
01:02 57.9 °F 56.1 °F 30.3 in Calm     94 % 0 in
01:07 58.3 °F 56.3 °F 30.3 in Calm   1 mph 93 % 0 in
01:12 58.3 °F 55.9 °F 30.3 in Calm   1 mph 92 % 0 in
01:17 57.9 °F 55.2 °F 30.3 in Calm   1 mph 91 % 0 in
01:22 57.7 °F 55.4 °F 30.3 in Calm     92 % 0 in
01:27 57.6 °F 55.2 °F 30.3 in Calm     92 % 0 in
01:32 56.8 °F 54.3 °F 30.3 in SE 2 mph   91 % 0 in
01:37 55 °F 52.5 °F 30.3 in Calm   3 mph 91 % 0 in
01:42 54.9 °F 52.9 °F 30.3 in Calm   3 mph 93 % 0 in
01:47 55.6 °F 54 °F 30.3 in Calm   3 mph 94 % 0 in
01:52 55.8 °F 54.1 °F 30.3 in Calm   3 mph 94 % 0 in
01:57 55.9 °F 54.5 °F 30.3 in Calm     95 % 0 in
02:02 55.8 °F 54.1 °F 30.3 in NNW 1 mph   94 % 0 in
02:07 55.9 °F 54.5 °F 30.3 in Calm   2 mph 95 % 0 in
02:12 56.5 °F 55 °F 30.3 in Calm   2 mph 95 % 0 in
02:17 56.8 °F 55.4 °F 30.3 in Calm   2 mph 95 % 0 in
02:22 57 °F 55.6 °F 30.3 in NW 1 mph 2 mph 95 % 0 in
02:27 56.7 °F 55 °F 30.3 in Calm   2 mph 94 % 0 in
02:32 56.1 °F 54.5 °F 30.3 in Calm   2 mph 94 % 0 in
02:42 55.9 °F 54.3 °F 30.3 in Calm   1 mph 94 % 0 in
02:47 55.8 °F 54.1 °F 30.3 in Calm     94 % 0 in
02:52 54.5 °F 52.2 °F 30.3 in Calm   2 mph 92 % 0 in
02:57 54 °F 52 °F 30.3 in Calm   2 mph 93 % 0 in
03:02 54.5 °F 53.4 °F 30.3 in Calm   2 mph 96 % 0 in
03:07 54.9 °F 53.4 °F 30.3 in Calm   3 mph 95 % 0 in
03:12 54.9 °F 53.4 °F 30.3 in North 1 mph 3 mph 95 % 0 in
03:17 55.8 °F 54.7 °F 30.3 in Calm   2 mph 96 % 0 in
03:22 55.8 °F 54.3 °F 30.3 in Calm   2 mph 95 % 0 in
03:27 55.6 °F 54.1 °F 30.3 in Calm   1 mph 95 % 0 in
03:32 55.6 °F 54.1 °F 30.3 in Calm   1 mph 95 % 0 in
03:37 55.8 °F 54.3 °F 30.3 in Calm   1 mph 95 % 0 in
03:42 55.8 °F 54.3 °F 30.3 in Calm   1 mph 95 % 0 in
03:47 55.4 °F 54 °F 30.3 in Calm   1 mph 95 % 0 in
03:52 55 °F 53.6 °F 30.3 in Calm   1 mph 95 % 0 in
03:57 54.5 °F 52.9 °F 30.3 in Calm     94 % 0 in
04:02 54.1 °F 52.7 °F 30.3 in Calm     95 % 0 in
04:12 53.8 °F 52.3 °F 30.3 in Calm     95 % 0 in
04:17 53.8 °F 52.3 °F 30.3 in Calm   1 mph 95 % 0 in
04:22 53.8 °F 52.3 °F 30.2 in Calm   1 mph 95 % 0 in
04:32 53.8 °F 52.7 °F 30.3 in Calm     96 % 0 in
04:42 54.1 °F 53.1 °F 30.2 in Calm     96 % 0 in
04:47 54 °F 52.9 °F 30.2 in Calm   1 mph 96 % 0 in
04:52 54 °F 52.9 °F 30.2 in Calm   1 mph 96 % 0 in
04:57 53.8 °F 52.3 °F 30.2 in NNE 1 mph 1 mph 95 % 0 in
05:02 53.8 °F 52.7 °F 30.2 in Calm   1 mph 96 % 0 in
05:22 53.2 °F 52.2 °F 30.2 in Calm     96 % 0 in
05:27 53.1 °F 52 °F 30.2 in Calm     96 % 0 in
05:37 52.9 °F 51.8 °F 30.2 in Calm     96 % 0 in
05:42 53.2 °F 52.2 °F 30.2 in Calm     96 % 0 in
05:47 53.6 °F 52.7 °F 30.2 in Calm     97 % 0 in
05:52 53.8 °F 52.9 °F 30.2 in Calm     97 % 0 in
05:57 53.2 °F 52.2 °F 30.2 in Calm     96 % 0 in
06:02 53.2 °F 52.2 °F 30.2 in Calm     96 % 0 in
06:12 53.2 °F 52.2 °F 30.2 in Calm     96 % 0 in
06:17 52.5 °F 51.4 °F 30.2 in North 1 mph   96 % 0 in
06:22 52.7 °F 51.6 °F 30.2 in Calm     96 % 0 in
06:32 53.4 °F 52.5 °F 30.2 in Calm   1 mph 97 % 0 in
06:42 53.1 °F 52.2 °F 30.2 in Calm   1 mph 97 % 0 in
06:52 53.8 °F 52.9 °F 30.2 in Calm     97 % 0 in
07:02 53.2 °F 52.3 °F 30.2 in Calm     97 % 0 in
07:12 53.2 °F 52.3 °F 30.2 in Calm     97 % 0 in
07:22 52.7 °F 51.6 °F 30.2 in Calm     96 % 0 in
07:32 53.1 °F 52.2 °F 30.2 in Calm     97 % 0 in
07:42 52.2 °F 51.1 °F 30.2 in Calm     96 % 0 in
07:52 52.2 °F 51.1 °F 30.2 in Calm     96 % 0 in
07:57 52.3 °F 51.4 °F 30.2 in Calm     97 % 0 in
08:02 52.5 °F 51.6 °F 30.2 in Calm     97 % 0 in
08:12 52.5 °F 51.6 °F 30.2 in Calm     97 % 0 in
08:22 52.3 °F 51.4 °F 30.2 in Calm     97 % 0 in
08:32 52.3 °F 51.4 °F 30.2 in Calm     97 % 0 in
08:37 52 °F 51.1 °F 30.2 in Calm     97 % 0 in
08:42 52.2 °F 51.3 °F 30.2 in Calm     97 % 0 in
08:52 52.9 °F 52 °F 30.2 in Calm     97 % 0 in
08:57 53.1 °F 52.2 °F 30.2 in Calm     97 % 0 in
09:02 53.2 °F 52.3 °F 30.2 in Calm     97 % 0 in
09:12 53.2 °F 52.3 °F 30.2 in Calm     97 % 0 in
09:17 53.4 °F 52.5 °F 30.2 in Calm     97 % 0 in
09:22 53.8 °F 52.9 °F 30.2 in Calm     97 % 0 in
09:32 54.7 °F 53.8 °F 30.2 in Calm     97 % 0 in
09:42 55.6 °F 54.7 °F 30.2 in Calm     97 % 0 in
09:52 56.8 °F 55.9 °F 30.2 in Calm     97 % 0 in
10:02 57.9 °F 57 °F 30.2 in Calm     97 % 0 in
10:12 58.5 °F 57 °F 30.2 in Calm     95 % 0 in
10:17 58.8 °F 56.8 °F 30.2 in Calm     93 % 0 in
10:22 59.2 °F 56.5 °F 30.2 in Calm     91 % 0 in
10:32 60.1 °F 56.5 °F 30.2 in Calm   2 mph 88 % 0 in
10:37 60.8 °F 56.7 °F 30.2 in Calm   2 mph 86 % 0 in
10:42 61 °F 56.1 °F 30.2 in Calm   2 mph 84 % 0 in
10:52 61.3 °F 56.1 °F 30.2 in Calm     83 % 0 in
11:02 61.3 °F 55 °F 30.2 in Calm     80 % 0 in
11:12 61.3 °F 55.4 °F 30.2 in Calm     81 % 0 in
11:17 61.9 °F 55.9 °F 30.2 in Calm     81 % 0 in
11:22 62.4 °F 55.8 °F 30.2 in Calm     79 % 0 in
11:32 63 °F 55.6 °F 30.2 in East 2 mph   77 % 0 in
11:42 64.2 °F 56.5 °F 30.2 in Calm   4 mph 76 % 0 in
11:52 65.5 °F 56.7 °F 30.2 in Calm   4 mph 73 % 0 in
12:12 66.9 °F 55.9 °F 30.2 in Calm   4 mph 68 % 0 in
12:22 67.8 °F 56.1 °F 30.2 in SE 2 mph 4 mph 66 % 0 in
12:32 67.8 °F 56.8 °F 30.2 in Calm   3 mph 68 % 0 in
12:42 68.7 °F 56.5 °F 30.2 in East 1 mph 5 mph 65 % 0 in
12:47 69.1 °F 57.2 °F 30.2 in Calm   4 mph 66 % 0 in
12:52 70.2 °F 57.4 °F 30.2 in SSE 1 mph 4 mph 64 % 0 in
13:02 70.3 °F 57.2 °F 30.2 in SSE 1 mph 5 mph 63 % 0 in
13:07 70.7 °F 57.6 °F 30.2 in Calm   4 mph 63 % 0 in
13:12 70.9 °F 57.2 °F 30.2 in East 2 mph 4 mph 62 % 0 in
13:17 71.1 °F 57.4 °F 30.1 in East 3 mph 3 mph 62 % 0 in
13:22 71.1 °F 56.8 °F 30.1 in ENE 3 mph 3 mph 61 % 0 in
13:32 71.2 °F 57 °F 30.1 in ESE 1 mph 6 mph 61 % 0 in
13:37 71.8 °F 57.6 °F 30.1 in ENE 4 mph 6 mph 61 % 0 in
13:42 72 °F 57.7 °F 30.1 in ENE 3 mph 6 mph 61 % 0 in
13:47 72.3 °F 57.7 °F 30.1 in ESE 2 mph 7 mph 60 % 0 in
13:52 72.9 °F 57.7 °F 30.1 in SE 2 mph 7 mph 59 % 0 in
14:02 73.6 °F 58.3 °F 30.1 in ENE 3 mph 6 mph 59 % 0 in
14:12 74.1 °F 57.9 °F 30.1 in ENE 2 mph 6 mph 57 % 0 in
14:17 74.3 °F 58.1 °F 30.1 in SSE 1 mph 7 mph 57 % 0 in
14:27 74.8 °F 58.1 °F 30.1 in SE 1 mph 7 mph 56 % 0 in
14:32 74.8 °F 58.1 °F 30.1 in SE 1 mph 7 mph 56 % 0 in
14:42 75.2 °F 58.5 °F 30.1 in Calm   8 mph 56 % 0 in
14:52 75.6 °F 58.3 °F 30.1 in East 1 mph 8 mph 55 % 0 in
15:02 75.9 °F 57.6 °F 30.1 in NE 2 mph 8 mph 53 % 0 in
15:12 75.7 °F 56.8 °F 30.1 in ENE 2 mph 7 mph 52 % 0 in
15:17 75.7 °F 55.8 °F 30.1 in NNE 2 mph 6 mph 50 % 0 in
15:22 75.7 °F 56.3 °F 30.1 in SE 2 mph 6 mph 51 % 0 in
15:32 75.9 °F 55.9 °F 30.1 in SSE 2 mph 8 mph 50 % 0 in
15:42 76.1 °F 54.3 °F 30.1 in ESE 1 mph 8 mph 47 % 0 in
15:47 76.3 °F 52.7 °F 30.1 in ENE 2 mph 8 mph 44 % 0 in
15:52 75.9 °F 52.5 °F 30.1 in East 1 mph 8 mph 44 % 0 in
16:02 76.5 °F 51.1 °F 30.1 in SE 1 mph 8 mph 41 % 0 in
16:12 76.6 °F 46.9 °F 30.1 in SE 4 mph 9 mph 35 % 0 in
16:17 76.3 °F 46.6 °F 30.1 in East 3 mph 9 mph 35 % 0 in
16:22 76.3 °F 48.7 °F 30.1 in SSE 3 mph 9 mph 38 % 0 in
16:32 76.3 °F 48 °F 30.1 in SE 2 mph 9 mph 37 % 0 in
16:42 76.5 °F 48.2 °F 30.1 in SSE 2 mph 7 mph 37 % 0 in
16:47 76.5 °F 49.6 °F 30.1 in Calm   8 mph 39 % 0 in
16:52 76.6 °F 49.1 °F 30.1 in Calm   8 mph 38 % 0 in
17:02 76.5 °F 49.6 °F 30.1 in East 1 mph 10 mph 39 % 0 in
17:12 76.3 °F 48 °F 30.1 in SW 1 mph 10 mph 37 % 0 in
17:17 76.1 °F 50 °F 30 in Calm   7 mph 40 % 0 in
17:22 76.1 °F 48.6 °F 30 in SSE 3 mph 7 mph 38 % 0 in
17:32 76.3 °F 50.2 °F 30 in SE 3 mph 7 mph 40 % 0 in
17:42 75.7 °F 49.6 °F 30 in Calm   5 mph 40 % 0 in
17:52 76.1 °F 50 °F 30 in Calm   5 mph 40 % 0 in
17:57 75.9 °F 49.8 °F 30 in Calm   4 mph 40 % 0 in
18:02 75.7 °F 50.4 °F 30 in Calm   4 mph 41 % 0 in
18:12 75 °F 50.4 °F 30 in Calm   2 mph 42 % 0 in
18:17 74.7 °F 50.7 °F 30 in Calm   2 mph 43 % 0 in
18:22 74.1 °F 50.2 °F 30 in Calm   2 mph 43 % 0 in
18:32 73 °F 49.3 °F 30 in Calm   5 mph 43 % 0 in
18:42 71.2 °F 49.5 °F 30 in Calm   2 mph 46 % 0 in
18:47 70.9 °F 49.6 °F 30 in Calm     47 % 0 in
18:52 70.5 °F 49.3 °F 30 in Calm     47 % 0 in
18:57 70 °F 48.7 °F 30 in Calm     47 % 0 in
19:02 69.1 °F 49.6 °F 30 in Calm     50 % 0 in
19:12 67.1 °F 49.5 °F 30 in Calm   1 mph 53 % 0 in
19:17 66.4 °F 49.3 °F 30 in Calm   1 mph 54 % 0 in
19:22 66 °F 49.5 °F 30 in Calm   1 mph 55 % 0 in
19:32 65.3 °F 49.3 °F 30 in Calm     56 % 0 in
19:37 64.8 °F 49.6 °F 30 in Calm     58 % 0 in
19:47 64 °F 50.4 °F 30 in North 2 mph 2 mph 61 % 0 in
19:52 63.7 °F 50.4 °F 30 in Calm   2 mph 62 % 0 in
19:57 63 °F 50.5 °F 30 in NNW 1 mph 2 mph 64 % 0 in
20:02 62.6 °F 49.5 °F 30 in NNW 1 mph 2 mph 62 % 0 in
20:07 62.2 °F 49.1 °F 30 in Calm   1 mph 62 % 0 in
20:12 62.2 °F 49.5 °F 30 in NNW 1 mph 1 mph 63 % 0 in
20:17 61.9 °F 50 °F 30 in NNW 1 mph 1 mph 65 % 0 in
20:22 61.3 °F 49.8 °F 30 in Calm   2 mph 66 % 0 in
20:27 60.8 °F 49.8 °F 30 in North 1 mph 2 mph 67 % 0 in
20:32 60.6 °F 50 °F 30 in Calm   2 mph 68 % 0 in
20:37 60.6 °F 50 °F 30 in Calm   2 mph 68 % 0 in
20:42 60.4 °F 50.2 °F 30 in Calm   1 mph 69 % 0 in
20:47 60.1 °F 49.8 °F 30 in Calm   1 mph 69 % 0 in
20:52 59.5 °F 49.3 °F 30 in Calm   1 mph 69 % 0 in
21:02 59 °F 50 °F 30 in Calm     72 % 0 in
21:07 58.5 °F 49.8 °F 30 in Calm     73 % 0 in
21:12 57.6 °F 50 °F 30 in Calm     76 % 0 in
21:17 57 °F 49.8 °F 30 in Calm     77 % 0 in
21:22 56.7 °F 49.5 °F 30 in Calm     77 % 0 in
21:27 56.8 °F 49.3 °F 30 in Calm     76 % 0 in
21:32 56.5 °F 49.3 °F 30 in Calm     77 % 0 in
21:42 56.7 °F 49.1 °F 30 in WNW 2 mph   76 % 0 in
21:47 56.7 °F 48.4 °F 30 in West 1 mph 3 mph 74 % 0 in
21:52 57 °F 48.7 °F 30 in Calm   3 mph 74 % 0 in
21:57 57.2 °F 48.6 °F 30 in Calm   3 mph 73 % 0 in
22:02 57 °F 48.4 °F 30 in Calm   3 mph 73 % 0 in
22:07 57 °F 48.4 °F 30 in Calm   1 mph 73 % 0 in
22:17 55.8 °F 48.4 °F 30 in Calm   1 mph 76 % 0 in
22:27 55.2 °F 48.6 °F 30 in Calm     78 % 0 in
22:32 55.4 °F 48.4 °F 30 in Calm     77 % 0 in
22:37 55.6 °F 48.6 °F 30 in Calm     77 % 0 in
22:47 55.6 °F 48.2 °F 30 in Calm     76 % 0 in
22:52 55.2 °F 48.2 °F 30 in Calm     77 % 0 in
22:57 55 °F 48 °F 30 in WNW 2 mph 2 mph 77 % 0 in
23:02 55 °F 47.7 °F 30 in Calm   2 mph 76 % 0 in
23:12 52.9 °F 46.9 °F 30 in Calm   3 mph 80 % 0 in
23:17 53.1 °F 47.7 °F 30 in Calm   5 mph 82 % 0 in
23:22 53.2 °F 47.5 °F 30 in Calm   5 mph 81 % 0 in
23:32 53.8 °F 47.8 °F 30 in Calm     80 % 0 in
23:37 53.8 °F 47.5 °F 30 in Calm   1 mph 79 % 0 in
23:42 54.1 °F 47.5 °F 30 in Calm   1 mph 78 % 0 in
23:47 54.9 °F 47.8 °F 30 in Calm   1 mph 77 % 0 in
23:52 54.9 °F 47.5 °F 30 in WNW 2 mph 2 mph 76 % 0 in
23:57 54.1 °F 47.1 °F 30 in Calm   3 mph 77 % 0 in
Meteo18
Compliments of Weather Underground - 4 mb

Script developed by  Jim McMurry - jmcmurry@mwt.net Adapted for the template by  Wim van der Kuil - Leuven-Template.eu

You find our weather info also at:

European Weather Network

Weather Underground

Equipment we use:

Weather-station
Davis Vue

Weather-program
Meteohub

Weather-server
Raspberry PI 2 B+

Provider
1 and 1

Davis Vue

Meteohub

Raspberry PI 2 B+

1 and 1